Kezdőlap
METAR-TAF:

METAR-TAF

Repülőterek :

Boscobel Airport

Boscobel, Wisconsin, Amerikai Egyesült Államok

földrajzi szélesség: 43-09-22N, földrajzi hosszúság: 090-40-39W, magasság: 205 m

Jelenlegi meteorológiai megfigyelések

A jelentés 1 órával és 1 perccel ezelõtt készült, 06:53 UTC
Szélcsend
Hőmérséklet 22°C
Páratartalom 73%
Légköri nyomás 1013 hPa
Látótávolság: 16.1 km
Kevés felhő 8000 lábon
Kevés felhő 12000 lábon
enyhe esõ

METAR: KOVS 260653Z AUTO 00000KT 10SM -RA FEW080 FEW120 22/17 A2992 RMK AO2 RAB49 SLP130 P0000 T02170172

Idő: 02:54 (07:54 UTC)


TAF: hiányzik

Meteorológiai megfigyelések és előrejelzések több, mint 4000 repülőtéren (METAR és TAF jelentéseket).

A térképen piros és sárga pontok jelzik az elérhető meteorológiai állomásokat.

Mozgassa az egeret a pont fölött, hogy megjelenjen az állomás neve.

Azután kattintson az időjárási megfigyelések és előrejelzések megtekintéséhez.

A térkép megváltoztatása: kattintson a fekete keresztel jelölt zöld gombra ráközelítéshez, a vonallal jelölt zöld gombra távolításhoz, vagy a zöld nyilakra a szomszédos térképek eléréséhez.


METAR-TAF: